White City, Illinois
Current Conditions -  °F | °C
As of 2:15 PM on Sunday 25 Jan 2015 (Local Time) from K3LF Reporting Station
Haze Haze  
Wind Chill: 31°   Ceiling: 700
Heat Index: 39°   Visibility: 5mi
Dew Point: 37°   Wind: 13mph
Humidity: 91%   Direction: 360°N
Pressure: 29.62"   Gusts: NA
Location:  39.0651°N, 89.7508°W
Report Text: K3LF 252015Z AUTO 36011KT 5SM BR OVC007 04/03 A2962 RMK AO2 T00390026
Loading
Personal Weather Stations






























Interactive Weather Map New forecast layout! Learn more

10-Day Weather Forecast

Advertisements
Track Severe Weather on mobile